Time;durP1;ratioP1;P1;durP2;ratioP2;P2;SDS_P1;SDS_P2;PMS_P1;PMS_P2;Temp;Humidity;BMP_temperature;BMP_pressure;BME280_temperature;BME280_humidity;BME280_pressure;Samples;Min_cycle;Max_cycle;Signal;HPM_P1;HPM_P2
2021/09/16 00:00:19;;;;;;;2.42;2.08;;;;;;;;;;5014763;28;20022;-77
2021/09/16 00:02:45;;;;;;;2.67;1.98;;;;;;;;;;4977513;28;20443;-77
2021/09/16 00:05:11;;;;;;;2.17;1.80;;;;;;;;;;5003548;28;20406;-77
2021/09/16 00:07:36;;;;;;;2.90;2.10;;;;;;;;;;5013797;28;20767;-77
2021/09/16 00:10:03;;;;;;;2.30;2.03;;;;;;;;;;4981129;28;20029;-77
2021/09/16 00:12:28;;;;;;;2.40;2.20;;;;;;;;;;4994556;28;20017;-77
2021/09/16 00:14:53;;;;;;;2.35;2.15;;;;;;;;;;4985090;28;20026;-76
2021/09/16 00:17:18;;;;;;;3.72;2.58;;;;;;;;;;4996649;28;20085;-77
2021/09/16 00:19:46;;;;;;;3.42;2.83;;;;;;;;;;4980975;28;20026;-77
2021/09/16 00:22:11;;;;;;;4.22;2.45;;;;;;;;;;4997490;28;20599;-77
2021/09/16 00:24:36;;;;;;;3.90;2.67;;;;;;;;;;5014211;28;20104;-77
2021/09/16 00:27:01;;;;;;;5.07;2.83;;;;;;;;;;5013577;28;20476;-77
2021/09/16 00:29:27;;;;;;;3.65;2.47;;;;;;;;;;4977701;28;20367;-77
2021/09/16 00:31:52;;;;;;;3.30;2.97;;;;;;;;;;5014262;28;20439;-77
2021/09/16 00:34:17;;;;;;;3.85;3.42;;;;;;;;;;5029605;28;20026;-77
2021/09/16 00:36:42;;;;;;;4.17;3.20;;;;;;;;;;4996483;28;20029;-77
2021/09/16 00:39:08;;;;;;;4.93;4.13;;;;;;;;;;4996305;28;20265;-77
2021/09/16 00:41:33;;;;;;;4.45;3.83;;;;;;;;;;5014285;28;20120;-77
2021/09/16 00:43:58;;;;;;;4.55;4.15;;;;;;;;;;5025976;28;20784;-77
2021/09/16 00:46:23;;;;;;;4.25;3.85;;;;;;;;;;5009046;28;20105;-77
2021/09/16 00:48:49;;;;;;;4.22;3.53;;;;;;;;;;5012978;28;20018;-77
2021/09/16 00:51:14;;;;;;;3.70;3.40;;;;;;;;;;5010568;28;20053;-77
2021/09/16 00:53:39;;;;;;;5.00;3.42;;;;;;;;;;5000952;28;20492;-77
2021/09/16 00:56:06;;;;;;;4.47;3.63;;;;;;;;;;5012473;28;20380;-77
2021/09/16 00:58:36;;;;;;;4.82;3.50;;;;;;;;;;4996229;28;20026;-77
2021/09/16 01:01:01;;;;;;;4.70;3.55;;;;;;;;;;4995941;28;20026;-77
2021/09/16 01:03:26;;;;;;;5.47;4.00;;;;;;;;;;4996438;28;20017;-77
2021/09/16 01:05:52;;;;;;;4.75;3.70;;;;;;;;;;4995677;28;20782;-77
2021/09/16 01:08:18;;;;;;;4.00;3.28;;;;;;;;;;5013616;28;20117;-77
2021/09/16 01:10:43;;;;;;;5.75;3.03;;;;;;;;;;5029018;28;20130;-77
2021/09/16 01:13:09;;;;;;;4.47;3.07;;;;;;;;;;4994204;28;20033;-77
2021/09/16 01:15:34;;;;;;;3.67;3.17;;;;;;;;;;4995129;28;20598;-77
2021/09/16 01:18:00;;;;;;;3.30;3.00;;;;;;;;;;5012250;28;20057;-77
2021/09/16 01:20:25;;;;;;;3.53;3.23;;;;;;;;;;5014528;28;20034;-77
2021/09/16 01:22:51;;;;;;;4.28;3.47;;;;;;;;;;4995561;28;20327;-77
2021/09/16 01:25:16;;;;;;;3.65;2.80;;;;;;;;;;5012958;28;20471;-77
2021/09/16 01:27:42;;;;;;;3.72;3.30;;;;;;;;;;5021146;28;20057;-77
2021/09/16 01:30:07;;;;;;;5.82;2.97;;;;;;;;;;5013418;28;20513;-77
2021/09/16 01:32:32;;;;;;;3.85;3.45;;;;;;;;;;4995749;28;20057;-77
2021/09/16 01:34:57;;;;;;;5.40;3.10;;;;;;;;;;5013574;28;20080;-77
2021/09/16 01:37:23;;;;;;;3.28;2.92;;;;;;;;;;5012159;28;20025;-77
2021/09/16 01:39:48;;;;;;;3.97;3.10;;;;;;;;;;5000557;28;20453;-77
2021/09/16 01:42:13;;;;;;;3.20;3.00;;;;;;;;;;5009511;28;20272;-77
2021/09/16 01:44:38;;;;;;;4.90;2.95;;;;;;;;;;5007254;28;20085;-77
2021/09/16 01:47:05;;;;;;;3.55;3.22;;;;;;;;;;5009209;28;20026;-77
2021/09/16 01:49:30;;;;;;;3.08;2.83;;;;;;;;;;5013028;28;20084;-77
2021/09/16 01:51:56;;;;;;;3.28;3.08;;;;;;;;;;5012270;28;20022;-77
2021/09/16 01:54:21;;;;;;;3.85;3.08;;;;;;;;;;5012332;28;20152;-77
2021/09/16 01:56:47;;;;;;;3.83;2.97;;;;;;;;;;4995078;28;20017;-77
2021/09/16 01:59:12;;;;;;;3.20;3.00;;;;;;;;;;4994917;28;20548;-77
2021/09/16 02:01:37;;;;;;;2.60;2.40;;;;;;;;;;4994687;28;20029;-77
2021/09/16 02:04:02;;;;;;;3.80;2.83;;;;;;;;;;5012710;28;20896;-77
2021/09/16 02:06:27;;;;;;;3.25;2.95;;;;;;;;;;4994665;28;20288;-77
2021/09/16 02:08:53;;;;;;;3.88;2.70;;;;;;;;;;4978468;28;20026;-77
2021/09/16 02:11:18;;;;;;;3.97;3.60;;;;;;;;;;4995202;28;20395;-77
2021/09/16 02:13:43;;;;;;;5.47;4.07;;;;;;;;;;5009739;28;20339;-77
2021/09/16 02:16:08;;;;;;;5.72;5.05;;;;;;;;;;5011546;28;20295;-77
2021/09/16 02:18:33;;;;;;;9.93;6.37;;;;;;;;;;5012750;28;20034;-77
2021/09/16 02:20:59;;;;;;;16.67;8.05;;;;;;;;;;5020516;28;20331;-77
2021/09/16 02:23:24;;;;;;;10.43;7.97;;;;;;;;;;5012504;28;20022;-77
2021/09/16 02:25:49;;;;;;;10.07;8.27;;;;;;;;;;4994506;28;20061;-78
2021/09/16 02:28:14;;;;;;;9.07;7.90;;;;;;;;;;5011756;28;20292;-78
2021/09/16 02:30:40;;;;;;;10.77;9.68;;;;;;;;;;4994070;28;20343;-78
2021/09/16 02:33:05;;;;;;;11.50;10.40;;;;;;;;;;5027877;28;20073;-78
2021/09/16 02:35:31;;;;;;;8.90;7.15;;;;;;;;;;4994158;28;20018;-79
2021/09/16 02:37:56;;;;;;;9.98;8.85;;;;;;;;;;4984835;28;20113;-78
2021/09/16 02:40:21;;;;;;;8.70;7.35;;;;;;;;;;4994171;28;20750;-78
2021/09/16 02:42:46;;;;;;;7.47;6.57;;;;;;;;;;4990809;28;20025;-78
2021/09/16 02:45:12;;;;;;;8.07;7.10;;;;;;;;;;5024008;28;20276;-78
2021/09/16 02:47:37;;;;;;;8.73;7.78;;;;;;;;;;4993963;28;20360;-77
2021/09/16 02:50:02;;;;;;;8.10;7.30;;;;;;;;;;5012267;28;20060;-77
2021/09/16 02:52:28;;;;;;;8.48;6.43;;;;;;;;;;5011605;28;20100;-78
2021/09/16 02:54:53;;;;;;;7.80;7.03;;;;;;;;;;5011696;28;20049;-78
2021/09/16 02:57:18;;;;;;;7.93;7.15;;;;;;;;;;4993886;28;20257;-78
2021/09/16 02:59:43;;;;;;;8.03;7.33;;;;;;;;;;5011884;28;20031;-78
2021/09/16 03:02:08;;;;;;;10.10;9.20;;;;;;;;;;5011225;28;20689;-78
2021/09/16 03:04:33;;;;;;;11.30;10.02;;;;;;;;;;5011993;28;20272;-78
2021/09/16 03:06:59;;;;;;;10.50;9.50;;;;;;;;;;5014701;28;20034;-78
2021/09/16 03:09:24;;;;;;;12.40;11.02;;;;;;;;;;5015887;28;20275;-78
2021/09/16 03:11:49;;;;;;;11.80;10.67;;;;;;;;;;5015115;28;20022;-78
2021/09/16 03:14:15;;;;;;;13.10;11.90;;;;;;;;;;4995297;28;20570;-78
2021/09/16 03:16:40;;;;;;;14.52;13.02;;;;;;;;;;4995446;28;20026;-78
2021/09/16 03:19:05;;;;;;;13.17;11.77;;;;;;;;;;5014601;28;20030;-78
2021/09/16 03:21:31;;;;;;;15.55;13.95;;;;;;;;;;4993075;28;20720;-77
2021/09/16 03:23:56;;;;;;;14.02;12.63;;;;;;;;;;5013478;28;20037;-78
2021/09/16 03:26:21;;;;;;;14.17;12.60;;;;;;;;;;4997965;28;20036;-77
2021/09/16 03:28:46;;;;;;;15.47;12.47;;;;;;;;;;4997594;28;20331;-77
2021/09/16 03:31:11;;;;;;;14.10;12.52;;;;;;;;;;4997514;28;20315;-77
2021/09/16 03:33:37;;;;;;;15.35;13.75;;;;;;;;;;4997870;28;20061;-77
2021/09/16 03:36:02;;;;;;;14.40;13.10;;;;;;;;;;5015323;28;20472;-77
2021/09/16 03:38:27;;;;;;;14.45;12.68;;;;;;;;;;5014383;28;20029;-77
2021/09/16 03:40:53;;;;;;;15.48;14.00;;;;;;;;;;5014562;28;20391;-77
2021/09/16 03:43:18;;;;;;;13.73;12.40;;;;;;;;;;4991652;28;20419;-77
2021/09/16 03:45:43;;;;;;;14.80;13.38;;;;;;;;;;4996901;28;20457;-77
2021/09/16 03:48:08;;;;;;;14.13;12.73;;;;;;;;;;5015312;28;20026;-77
2021/09/16 03:50:34;;;;;;;13.40;12.20;;;;;;;;;;5014299;28;20022;-77
2021/09/16 03:53:00;;;;;;;14.60;13.05;;;;;;;;;;5014503;28;20138;-77
2021/09/16 03:55:25;;;;;;;12.68;11.57;;;;;;;;;;4996148;28;20028;-77
2021/09/16 03:57:50;;;;;;;14.57;13.20;;;;;;;;;;4981193;28;20033;-77
2021/09/16 04:00:15;;;;;;;15.30;13.82;;;;;;;;;;4997060;28;20032;-76
2021/09/16 04:02:40;;;;;;;14.23;12.82;;;;;;;;;;4997713;28;20088;-77
2021/09/16 04:05:06;;;;;;;14.10;12.80;;;;;;;;;;4978306;28;20030;-77
2021/09/16 04:07:31;;;;;;;14.68;13.20;;;;;;;;;;5014544;28;20363;-77
2021/09/16 04:09:56;;;;;;;16.52;14.93;;;;;;;;;;4997113;28;20076;-77
2021/09/16 04:12:22;;;;;;;16.37;14.67;;;;;;;;;;4993069;28;20034;-77
2021/09/16 04:14:47;;;;;;;17.45;15.75;;;;;;;;;;5019524;28;20284;-77
2021/09/16 04:17:12;;;;;;;17.60;15.85;;;;;;;;;;5014118;28;20502;-77
2021/09/16 04:19:38;;;;;;;17.83;16.13;;;;;;;;;;4977120;28;20053;-77
2021/09/16 04:22:03;;;;;;;18.83;16.27;;;;;;;;;;4988070;28;20033;-78
2021/09/16 04:24:29;;;;;;;21.08;17.33;;;;;;;;;;4996727;28;20306;-76
2021/09/16 04:26:54;;;;;;;18.73;16.83;;;;;;;;;;4995888;28;20025;-76
2021/09/16 04:29:19;;;;;;;18.13;16.23;;;;;;;;;;4996692;28;20088;-76
2021/09/16 04:31:44;;;;;;;18.83;16.93;;;;;;;;;;4994094;28;20268;-76
2021/09/16 04:34:10;;;;;;;20.25;18.25;;;;;;;;;;4996645;28;20691;-76
2021/09/16 04:36:35;;;;;;;18.73;16.83;;;;;;;;;;4996295;28;20032;-75
2021/09/16 04:39:00;;;;;;;19.33;17.48;;;;;;;;;;4997090;28;20419;-76
2021/09/16 04:41:26;;;;;;;19.20;17.20;;;;;;;;;;4996386;28;20026;-76
2021/09/16 04:43:51;;;;;;;20.48;18.55;;;;;;;;;;4974767;28;20275;-76
2021/09/16 04:46:16;;;;;;;21.35;19.13;;;;;;;;;;5002415;28;20030;-76
2021/09/16 04:48:41;;;;;;;25.40;22.27;;;;;;;;;;4996489;28;20542;-76
2021/09/16 04:51:06;;;;;;;25.02;22.30;;;;;;;;;;5013713;28;20273;-76
2021/09/16 04:53:32;;;;;;;25.83;22.77;;;;;;;;;;4995801;28;20029;-76
2021/09/16 04:55:57;;;;;;;26.60;23.47;;;;;;;;;;5013507;28;20030;-76
2021/09/16 04:58:22;;;;;;;26.98;23.63;;;;;;;;;;5013577;28;20323;-76
2021/09/16 05:00:47;;;;;;;35.83;27.37;;;;;;;;;;4979004;28;20130;-76
2021/09/16 05:03:12;;;;;;;28.52;24.48;;;;;;;;;;4996396;28;20273;-74
2021/09/16 05:05:38;;;;;;;31.17;26.00;;;;;;;;;;4977195;28;20023;-74
2021/09/16 05:08:03;;;;;;;27.17;24.20;;;;;;;;;;5013217;28;20288;-75
2021/09/16 05:10:28;;;;;;;28.25;24.70;;;;;;;;;;5025563;28;20059;-78
2021/09/16 05:12:53;;;;;;;32.30;27.08;;;;;;;;;;4989875;28;20033;-77
2021/09/16 05:15:19;;;;;;;32.83;26.05;;;;;;;;;;5012495;28;20029;-76
2021/09/16 05:17:44;;;;;;;32.43;26.10;;;;;;;;;;4995016;28;20061;-76
2021/09/16 05:20:09;;;;;;;28.60;25.17;;;;;;;;;;5013124;28;20269;-76
2021/09/16 05:22:34;;;;;;;34.72;26.88;;;;;;;;;;5002730;28;20762;-77
2021/09/16 05:25:00;;;;;;;30.38;26.83;;;;;;;;;;5022782;28;20095;-77
2021/09/16 05:27:25;;;;;;;34.00;27.63;;;;;;;;;;5012295;28;20072;-79
2021/09/16 05:29:50;;;;;;;36.42;29.05;;;;;;;;;;5011802;28;20069;-75
2021/09/16 05:32:16;;;;;;;41.45;31.00;;;;;;;;;;5012710;28;20029;-78
2021/09/16 05:34:41;;;;;;;39.22;29.10;;;;;;;;;;4995598;28;20389;-77
2021/09/16 05:37:06;;;;;;;40.72;28.70;;;;;;;;;;5021457;28;20484;-76
2021/09/16 05:39:31;;;;;;;34.40;27.90;;;;;;;;;;5032766;28;20084;-77
2021/09/16 05:41:57;;;;;;;31.00;25.75;;;;;;;;;;5016199;28;20551;-74
2021/09/16 05:44:22;;;;;;;31.50;25.67;;;;;;;;;;4976719;28;20080;-76
2021/09/16 05:46:47;;;;;;;32.28;25.52;;;;;;;;;;5011385;28;20677;-75
2021/09/16 05:49:12;;;;;;;31.53;23.60;;;;;;;;;;4978616;28;20026;-76
2021/09/16 05:51:38;;;;;;;30.33;24.50;;;;;;;;;;4995057;28;20371;-75
2021/09/16 05:54:03;;;;;;;33.03;23.83;;;;;;;;;;4994700;28;20206;-76
2021/09/16 05:56:28;;;;;;;32.15;25.25;;;;;;;;;;5010766;28;20104;-77
2021/09/16 05:58:54;;;;;;;27.70;22.40;;;;;;;;;;4978655;28;20052;-76
2021/09/16 06:01:20;;;;;;;28.88;23.20;;;;;;;;;;5010152;28;20376;-75
2021/09/16 06:03:45;;;;;;;31.13;23.35;;;;;;;;;;5001086;28;20030;-75
2021/09/16 06:06:10;;;;;;;28.67;22.35;;;;;;;;;;5004720;28;20470;-77
2021/09/16 06:08:35;;;;;;;26.63;22.10;;;;;;;;;;5003031;28;20083;-74
2021/09/16 06:11:00;;;;;;;31.47;23.70;;;;;;;;;;4994542;28;20080;-75
2021/09/16 06:13:26;;;;;;;31.63;23.98;;;;;;;;;;4976177;28;20283;-74
2021/09/16 06:15:51;;;;;;;31.25;24.45;;;;;;;;;;4991756;28;20029;-74
2021/09/16 06:18:16;;;;;;;38.83;25.37;;;;;;;;;;4993155;28;20026;-73
2021/09/16 06:20:41;;;;;;;34.00;23.92;;;;;;;;;;4995691;28;20812;-74
2021/09/16 06:23:06;;;;;;;35.97;25.63;;;;;;;;;;4977485;28;20390;-74
2021/09/16 06:25:32;;;;;;;38.08;26.80;;;;;;;;;;4975250;28;20476;-74
2021/09/16 06:27:57;;;;;;;32.17;22.48;;;;;;;;;;4978224;28;20404;-73
2021/09/16 06:30:23;;;;;;;30.90;23.38;;;;;;;;;;5011555;28;20104;-75
2021/09/16 06:32:48;;;;;;;33.00;22.98;;;;;;;;;;5006716;28;20386;-73
2021/09/16 06:35:13;;;;;;;31.35;22.35;;;;;;;;;;4987173;28;20360;-77
2021/09/16 06:37:38;;;;;;;22.92;19.17;;;;;;;;;;4994327;28;20076;-76
2021/09/16 06:40:04;;;;;;;23.70;18.35;;;;;;;;;;4993761;28;20080;-77
2021/09/16 06:42:29;;;;;;;25.25;18.50;;;;;;;;;;4986774;28;20021;-76
2021/09/16 06:44:55;;;;;;;25.13;19.05;;;;;;;;;;4994893;28;20537;-76
2021/09/16 06:47:20;;;;;;;24.80;18.67;;;;;;;;;;4994133;28;20030;-76
2021/09/16 06:49:46;;;;;;;25.27;19.83;;;;;;;;;;5008909;28;20058;-76
2021/09/16 06:52:12;;;;;;;25.98;20.15;;;;;;;;;;5008010;28;20017;-76
2021/09/16 06:54:38;;;;;;;23.77;19.65;;;;;;;;;;5019108;28;20017;-76
2021/09/16 06:57:03;;;;;;;23.08;18.42;;;;;;;;;;4994518;28;20076;-76
2021/09/16 06:59:28;;;;;;;24.17;19.70;;;;;;;;;;5012006;28;20060;-76
2021/09/16 07:01:53;;;;;;;22.25;18.90;;;;;;;;;;4979888;28;20049;-77
2021/09/16 07:04:18;;;;;;;21.67;18.37;;;;;;;;;;5015926;28;20044;-77
2021/09/16 07:06:44;;;;;;;23.20;18.77;;;;;;;;;;5031494;28;20341;-80
2021/09/16 07:09:10;;;;;;;21.53;17.50;;;;;;;;;;4977688;28;20026;-78
2021/09/16 07:11:36;;;;;;;22.23;17.98;;;;;;;;;;4974714;28;20249;-79
2021/09/16 07:14:01;;;;;;;18.98;16.15;;;;;;;;;;5007958;28;20025;-79
2021/09/16 07:16:26;;;;;;;19.83;17.20;;;;;;;;;;5011263;28;20038;-78
2021/09/16 07:18:51;;;;;;;22.17;18.05;;;;;;;;;;5000488;28;20269;-79
2021/09/16 07:21:16;;;;;;;20.73;17.70;;;;;;;;;;4992214;28;20030;-80
2021/09/16 07:23:42;;;;;;;19.98;16.42;;;;;;;;;;4987835;28;20272;-80
2021/09/16 07:26:07;;;;;;;23.38;18.42;;;;;;;;;;4985755;28;20353;-82
2021/09/16 07:28:35;;;;;;;19.33;16.13;;;;;;;;;;5024065;28;20522;-81
2021/09/16 07:31:01;;;;;;;20.83;17.48;;;;;;;;;;4993847;28;20471;-79
2021/09/16 07:33:26;;;;;;;22.63;16.60;;;;;;;;;;4985204;28;20081;-82
2021/09/16 07:35:51;;;;;;;20.37;17.17;;;;;;;;;;4979201;28;20023;-83
2021/09/16 07:38:16;;;;;;;18.88;16.17;;;;;;;;;;4992164;28;20631;-80
2021/09/16 07:40:41;;;;;;;22.30;18.67;;;;;;;;;;4992156;28;20472;-79
2021/09/16 07:43:07;;;;;;;23.25;18.33;;;;;;;;;;4986690;28;20297;-78
2021/09/16 07:45:33;;;;;;;32.90;20.77;;;;;;;;;;5001613;28;20034;-84
2021/09/16 07:47:58;;;;;;;27.07;20.00;;;;;;;;;;4973843;28;20085;-81
2021/09/16 07:50:23;;;;;;;27.70;21.13;;;;;;;;;;4973529;28;20265;-76
2021/09/16 07:52:48;;;;;;;32.40;23.50;;;;;;;;;;4941540;28;20026;-79
2021/09/16 07:55:14;;;;;;;29.65;21.60;;;;;;;;;;4977528;28;20487;-78
2021/09/16 07:57:39;;;;;;;22.67;19.38;;;;;;;;;;4994755;28;20062;-79
2021/09/16 08:00:05;;;;;;;24.98;20.17;;;;;;;;;;4976841;28;20476;-78
2021/09/16 08:02:30;;;;;;;26.80;19.38;;;;;;;;;;4975805;28;20125;-80
2021/09/16 08:04:55;;;;;;;30.33;18.93;;;;;;;;;;4982006;28;20138;-78
2021/09/16 08:07:20;;;;;;;23.73;16.15;;;;;;;;;;4982496;28;20278;-78
2021/09/16 08:09:45;;;;;;;19.70;15.90;;;;;;;;;;4981647;28;20030;-79
2021/09/16 08:12:11;;;;;;;16.90;11.73;;;;;;;;;;4994471;28;20125;-79
2021/09/16 08:14:36;;;;;;;10.32;9.32;;;;;;;;;;4980740;28;20246;-78
2021/09/16 08:17:01;;;;;;;10.27;8.55;;;;;;;;;;5001492;28;20109;-79
2021/09/16 08:19:26;;;;;;;8.35;7.55;;;;;;;;;;5009182;28;20493;-79
2021/09/16 08:21:52;;;;;;;10.45;9.20;;;;;;;;;;4989146;28;20110;-79
2021/09/16 08:24:17;;;;;;;8.07;7.28;;;;;;;;;;4990372;28;20027;-79
2021/09/16 08:26:42;;;;;;;9.45;7.55;;;;;;;;;;4990529;28;20034;-78
2021/09/16 08:29:07;;;;;;;8.95;7.57;;;;;;;;;;4991295;28;20141;-80
2021/09/16 08:31:34;;;;;;;10.32;8.23;;;;;;;;;;4978393;28;20057;-81
2021/09/16 08:33:59;;;;;;;11.32;8.00;;;;;;;;;;5002667;28;20108;-80
2021/09/16 08:36:24;;;;;;;11.90;8.23;;;;;;;;;;4986234;28;20153;-77
2021/09/16 08:38:49;;;;;;;10.23;7.93;;;;;;;;;;5017294;28;20049;-80
2021/09/16 08:41:15;;;;;;;9.10;7.95;;;;;;;;;;5011481;28;20037;-80
2021/09/16 08:43:42;;;;;;;9.15;7.97;;;;;;;;;;4969146;28;20034;-79
2021/09/16 08:46:07;;;;;;;10.10;7.68;;;;;;;;;;4994960;28;20026;-79
2021/09/16 08:48:33;;;;;;;9.15;7.18;;;;;;;;;;4992837;28;20039;-80
2021/09/16 08:50:58;;;;;;;8.27;7.47;;;;;;;;;;5000303;28;20033;-80
2021/09/16 08:53:25;;;;;;;8.85;7.05;;;;;;;;;;4998252;28;20481;-79
2021/09/16 08:55:51;;;;;;;7.68;6.82;;;;;;;;;;4998161;28;20447;-77
2021/09/16 08:58:18;;;;;;;9.50;7.30;;;;;;;;;;4999247;28;20061;-78
2021/09/16 09:00:43;;;;;;;7.53;6.45;;;;;;;;;;4987135;28;20030;-78
2021/09/16 09:03:08;;;;;;;8.20;7.40;;;;;;;;;;5012712;28;20010;-78
2021/09/16 09:05:33;;;;;;;9.77;7.37;;;;;;;;;;4995063;28;20303;-78
2021/09/16 09:08:00;;;;;;;7.35;6.57;;;;;;;;;;4970957;28;20639;-80
2021/09/16 09:10:39;;;;;;;6.93;6.30;;;;;;;;;;5012828;28;20018;-79
2021/09/16 09:13:07;;;;;;;6.55;5.93;;;;;;;;;;4992900;28;20022;-79
2021/09/16 09:15:33;;;;;;;6.15;5.57;;;;;;;;;;5015341;28;20079;-79
2021/09/16 09:18:02;;;;;;;8.30;6.68;;;;;;;;;;5007175;28;20029;-79
2021/09/16 09:20:28;;;;;;;6.53;5.95;;;;;;;;;;4995540;28;20080;-79
2021/09/16 09:22:53;;;;;;;6.28;5.78;;;;;;;;;;5013074;28;20493;-79
2021/09/16 09:25:18;;;;;;;7.63;6.43;;;;;;;;;;5010003;28;20041;-79
2021/09/16 09:27:48;;;;;;;9.57;8.60;;;;;;;;;;4999152;28;20291;-78
2021/09/16 09:30:15;;;;;;;8.63;7.82;;;;;;;;;;5013293;28;20028;-79
2021/09/16 09:32:45;;;;;;;9.05;8.18;;;;;;;;;;5013207;28;20026;-78
2021/09/16 09:35:28;;;;;;;10.10;8.57;;;;;;;;;;5013687;28;20092;-79
2021/09/16 09:37:54;;;;;;;9.00;8.18;;;;;;;;;;4995892;28;20033;-79
2021/09/16 09:40:27;;;;;;;9.82;8.45;;;;;;;;;;4999598;28;20042;-79
2021/09/16 09:42:52;;;;;;;8.70;7.90;;;;;;;;;;4997571;28;20026;-79
2021/09/16 09:45:17;;;;;;;9.95;7.47;;;;;;;;;;4977440;28;20030;-78
2021/09/16 09:47:44;;;;;;;10.57;8.17;;;;;;;;;;4995382;28;20092;-78
2021/09/16 09:50:20;;;;;;;10.10;8.35;;;;;;;;;;5013911;28;20275;-78
2021/09/16 09:52:45;;;;;;;8.60;7.80;;;;;;;;;;5010455;28;20022;-78
2021/09/16 09:55:12;;;;;;;9.35;8.55;;;;;;;;;;5012544;28;20033;-78
2021/09/16 09:57:37;;;;;;;9.75;8.85;;;;;;;;;;5012438;28;20117;-78
2021/09/16 10:00:10;;;;;;;10.45;9.25;;;;;;;;;;4998061;28;20101;-77
2021/09/16 10:02:49;;;;;;;9.65;8.65;;;;;;;;;;5006569;28;20123;-78
2021/09/16 10:05:21;;;;;;;8.00;7.20;;;;;;;;;;4995040;28;20202;-77
2021/09/16 10:07:46;;;;;;;7.30;6.70;;;;;;;;;;5012595;28;20032;-78
2021/09/16 10:10:12;;;;;;;5.35;4.85;;;;;;;;;;5012745;28;20022;-78
2021/09/16 10:12:38;;;;;;;5.25;4.75;;;;;;;;;;5000076;28;20022;-78
2021/09/16 10:15:22;;;;;;;5.45;4.93;;;;;;;;;;5009752;28;20018;-78
2021/09/16 10:17:48;;;;;;;7.90;6.18;;;;;;;;;;4975451;28;20026;-77
2021/09/16 10:20:14;;;;;;;7.82;6.68;;;;;;;;;;5008313;28;20026;-77
2021/09/16 10:22:41;;;;;;;6.90;6.30;;;;;;;;;;4988403;28;20397;-77
2021/09/16 10:25:07;;;;;;;5.97;5.47;;;;;;;;;;4978366;28;20089;-77
2021/09/16 10:27:32;;;;;;;6.55;5.88;;;;;;;;;;4975047;28;20030;-78
2021/09/16 10:29:58;;;;;;;7.87;5.87;;;;;;;;;;4994100;28;20043;-76
2021/09/16 10:32:23;;;;;;;6.03;5.38;;;;;;;;;;5011212;28;20268;-76
2021/09/16 10:35:01;;;;;;;7.00;5.30;;;;;;;;;;5012223;28;20021;-78
2021/09/16 10:37:37;;;;;;;7.07;5.90;;;;;;;;;;4994306;28;20766;-77
2021/09/16 10:40:22;;;;;;;5.93;5.43;;;;;;;;;;5012603;28;20388;-74
2021/09/16 10:42:49;;;;;;;7.00;6.05;;;;;;;;;;4992294;28;20023;-73
2021/09/16 10:45:24;;;;;;;9.00;6.63;;;;;;;;;;5010344;28;20048;-74
2021/09/16 10:48:09;;;;;;;8.15;6.13;;;;;;;;;;4986544;28;20026;-72
2021/09/16 10:50:41;;;;;;;6.43;5.72;;;;;;;;;;4989882;28;20026;-74
2021/09/16 10:53:25;;;;;;;6.63;5.78;;;;;;;;;;5012852;28;20026;-74
2021/09/16 10:55:50;;;;;;;11.30;7.20;;;;;;;;;;5010905;28;20395;-74
2021/09/16 10:58:22;;;;;;;7.80;7.03;;;;;;;;;;4977947;28;20146;-75
2021/09/16 11:00:47;;;;;;;9.18;6.90;;;;;;;;;;5010860;28;20076;-75
2021/09/16 11:03:13;;;;;;;6.57;5.97;;;;;;;;;;5010458;28;20026;-74
2021/09/16 11:05:39;;;;;;;6.97;6.18;;;;;;;;;;5010025;28;20030;-75
2021/09/16 11:08:05;;;;;;;5.60;5.10;;;;;;;;;;5010985;28;20017;-75
2021/09/16 11:10:30;;;;;;;5.78;5.25;;;;;;;;;;5011947;28;20014;-75
2021/09/16 11:12:56;;;;;;;8.10;6.20;;;;;;;;;;5008227;28;20179;-75
2021/09/16 11:15:29;;;;;;;7.53;6.03;;;;;;;;;;4994892;28;20029;-75
2021/09/16 11:18:25;;;;;;;8.05;6.63;;;;;;;;;;4993852;28;20041;-75
2021/09/16 11:20:55;;;;;;;6.82;6.13;;;;;;;;;;4978411;28;20041;-75
2021/09/16 11:23:20;;;;;;;8.77;6.45;;;;;;;;;;4993315;28;20021;-75
2021/09/16 11:25:47;;;;;;;6.53;5.95;;;;;;;;;;4994478;28;20169;-75
2021/09/16 11:28:13;;;;;;;7.45;6.75;;;;;;;;;;5014742;28;20052;-74
2021/09/16 11:30:39;;;;;;;7.40;6.57;;;;;;;;;;4997753;28;20026;-74
2021/09/16 11:33:05;;;;;;;9.18;6.82;;;;;;;;;;5015483;28;20054;-73
2021/09/16 11:35:30;;;;;;;8.15;6.30;;;;;;;;;;4998638;28;20018;-74
2021/09/16 11:37:56;;;;;;;8.02;6.95;;;;;;;;;;4978103;28;20041;-75
2021/09/16 11:40:26;;;;;;;7.97;7.28;;;;;;;;;;4996544;28;20395;-75
2021/09/16 11:42:53;;;;;;;9.40;7.50;;;;;;;;;;4996109;28;20492;-74
2021/09/16 11:45:19;;;;;;;8.90;8.00;;;;;;;;;;5015245;28;20106;-74
2021/09/16 11:47:51;;;;;;;8.70;7.63;;;;;;;;;;5013934;28;20084;-74
2021/09/16 11:50:43;;;;;;;8.68;7.10;;;;;;;;;;4996429;28;20053;-75
2021/09/16 11:53:21;;;;;;;7.45;6.85;;;;;;;;;;4992400;28;20074;-74
2021/09/16 11:55:48;;;;;;;9.75;8.80;;;;;;;;;;5014816;28;20494;-74
2021/09/16 11:58:14;;;;;;;9.48;7.60;;;;;;;;;;4992450;28;20036;-74
2021/09/16 12:00:50;;;;;;;8.32;7.53;;;;;;;;;;5014874;28;20080;-74
2021/09/16 12:03:22;;;;;;;9.05;8.18;;;;;;;;;;5015053;28;20030;-74
2021/09/16 12:05:49;;;;;;;8.20;7.35;;;;;;;;;;5023810;28;20031;-74
2021/09/16 12:08:34;;;;;;;8.65;7.75;;;;;;;;;;5008069;28;20085;-75
2021/09/16 12:11:03;;;;;;;8.40;7.60;;;;;;;;;;4995438;28;20033;-74
2021/09/16 12:13:38;;;;;;;8.90;8.07;;;;;;;;;;4995924;28;20026;-73
2021/09/16 12:16:17;;;;;;;9.45;8.55;;;;;;;;;;4995266;28;20096;-73
2021/09/16 12:18:52;;;;;;;10.60;9.50;;;;;;;;;;4998487;28;20510;-74
2021/09/16 12:21:20;;;;;;;10.35;8.27;;;;;;;;;;5014268;28;20034;-73
2021/09/16 12:23:50;;;;;;;10.73;9.70;;;;;;;;;;4997108;28;20076;-74
2021/09/16 12:26:16;;;;;;;9.63;8.73;;;;;;;;;;5014510;28;20277;-74
2021/09/16 12:28:56;;;;;;;12.07;9.23;;;;;;;;;;5021948;28;20046;-74
2021/09/16 12:31:23;;;;;;;9.18;8.35;;;;;;;;;;5002352;28;20054;-74
2021/09/16 12:34:01;;;;;;;10.07;9.18;;;;;;;;;;5014107;28;20057;-74
2021/09/16 12:36:28;;;;;;;11.63;10.43;;;;;;;;;;5013770;28;20014;-74
2021/09/16 12:38:55;;;;;;;11.98;10.77;;;;;;;;;;5013781;28;20022;-74
2021/09/16 12:41:20;;;;;;;12.07;10.85;;;;;;;;;;5014623;28;20022;-73
2021/09/16 12:43:45;;;;;;;11.00;10.00;;;;;;;;;;5012975;28;20097;-73
2021/09/16 12:46:17;;;;;;;11.73;10.48;;;;;;;;;;4987792;28;20501;-73
2021/09/16 12:48:43;;;;;;;11.35;10.35;;;;;;;;;;5013680;28;20022;-74
2021/09/16 12:51:08;;;;;;;12.45;10.80;;;;;;;;;;4995953;28;20554;-73
2021/09/16 12:53:40;;;;;;;12.98;11.63;;;;;;;;;;5012980;28;20084;-73
2021/09/16 12:56:09;;;;;;;12.40;11.13;;;;;;;;;;4972416;28;20026;-73
2021/09/16 12:58:34;;;;;;;12.35;11.10;;;;;;;;;;4992615;28;20050;-73
2021/09/16 13:01:03;;;;;;;12.70;11.32;;;;;;;;;;5025846;28;20057;-73
2021/09/16 13:03:28;;;;;;;11.60;10.40;;;;;;;;;;5033984;28;20040;-74
2021/09/16 13:06:09;;;;;;;12.83;11.17;;;;;;;;;;5005302;28;20475;-74
2021/09/16 13:08:41;;;;;;;12.55;11.23;;;;;;;;;;4995436;28;20293;-74
2021/09/16 13:11:22;;;;;;;15.93;11.63;;;;;;;;;;5016790;28;20077;-74
2021/09/16 13:14:07;;;;;;;12.93;11.48;;;;;;;;;;4981696;28;20050;-73
2021/09/16 13:16:33;;;;;;;11.73;9.38;;;;;;;;;;5013013;28;20029;-72
2021/09/16 13:18:59;;;;;;;13.32;11.65;;;;;;;;;;5013195;28;20030;-73
2021/09/16 13:21:24;;;;;;;14.57;12.27;;;;;;;;;;5002464;28;20372;-74
2021/09/16 13:23:49;;;;;;;15.18;13.60;;;;;;;;;;5015035;28;20371;-73
2021/09/16 13:26:14;;;;;;;9.80;8.80;;;;;;;;;;4979499;28;20026;-73
2021/09/16 13:28:40;;;;;;;12.68;10.85;;;;;;;;;;4995168;28;20041;-73
2021/09/16 13:31:05;;;;;;;11.32;10.13;;;;;;;;;;5011843;28;20022;-73
2021/09/16 13:33:30;;;;;;;8.18;7.40;;;;;;;;;;4995610;28;20014;-74
2021/09/16 13:35:55;;;;;;;12.38;10.88;;;;;;;;;;5012263;28;20022;-76
2021/09/16 13:38:20;;;;;;;12.20;11.10;;;;;;;;;;5013125;28;20029;-74
2021/09/16 13:40:46;;;;;;;13.27;11.68;;;;;;;;;;4995860;28;20827;-80
2021/09/16 13:43:11;;;;;;;12.82;11.20;;;;;;;;;;4991889;28;20034;-77
2021/09/16 13:45:36;;;;;;;13.93;11.95;;;;;;;;;;5013203;28;20030;-76
2021/09/16 13:48:02;;;;;;;12.20;10.75;;;;;;;;;;4995311;28;20025;-79
2021/09/16 13:50:27;;;;;;;13.38;11.85;;;;;;;;;;4990197;28;20023;-81
2021/09/16 13:52:52;;;;;;;13.98;12.05;;;;;;;;;;5013107;28;20026;-81
2021/09/16 13:55:18;;;;;;;15.45;12.63;;;;;;;;;;4993004;28;20022;-83
2021/09/16 13:57:44;;;;;;;13.73;11.32;;;;;;;;;;5005166;28;20026;-80
2021/09/16 14:00:10;;;;;;;11.00;9.00;;;;;;;;;;4975749;28;20149;-83
2021/09/16 14:02:36;;;;;;;13.65;12.15;;;;;;;;;;5014728;28;20087;-82
2021/09/16 14:05:02;;;;;;;11.95;10.73;;;;;;;;;;4993006;28;20108;-77
2021/09/16 14:07:27;;;;;;;13.77;11.18;;;;;;;;;;5018163;28;20046;-77
2021/09/16 14:09:52;;;;;;;19.10;17.10;;;;;;;;;;5001245;28;20065;-78
2021/09/16 14:12:17;;;;;;;15.43;11.43;;;;;;;;;;5007719;28;20101;-78
2021/09/16 14:14:45;;;;;;;11.80;9.60;;;;;;;;;;5013869;28;20088;-78
2021/09/16 14:17:10;;;;;;;13.45;10.25;;;;;;;;;;4992283;28;20293;-77
2021/09/16 14:19:35;;;;;;;12.98;10.82;;;;;;;;;;4977145;28;20484;-78
2021/09/16 14:22:01;;;;;;;10.90;9.80;;;;;;;;;;4977686;28;20044;-78
2021/09/16 14:24:26;;;;;;;11.73;10.32;;;;;;;;;;4975860;28;20305;-78